sensor_id;sensor_type;location;lat;lon;timestamp;P1;durP1;ratioP1;P2;durP2;ratioP2
49183;SDS011;35021;49.214;12.270;2022-10-29T00:00:42;5.22;;;2.35;;
49183;SDS011;35021;49.214;12.270;2022-10-29T00:03:09;5.03;;;2.17;;
49183;SDS011;35021;49.214;12.270;2022-10-29T00:05:36;4.18;;;2.45;;
49183;SDS011;35021;49.214;12.270;2022-10-29T00:08:03;4.43;;;2.33;;
49183;SDS011;35021;49.214;12.270;2022-10-29T00:10:31;4.00;;;2.17;;
49183;SDS011;35021;49.214;12.270;2022-10-29T00:12:59;4.90;;;2.30;;
49183;SDS011;35021;49.214;12.270;2022-10-29T00:15:28;4.38;;;1.67;;
49183;SDS011;35021;49.214;12.270;2022-10-29T00:17:55;4.95;;;2.10;;
49183;SDS011;35021;49.214;12.270;2022-10-29T00:20:22;4.47;;;2.33;;
49183;SDS011;35021;49.214;12.270;2022-10-29T00:22:51;3.28;;;2.30;;
49183;SDS011;35021;49.214;12.270;2022-10-29T00:25:20;4.88;;;2.65;;
49183;SDS011;35021;49.214;12.270;2022-10-29T00:27:47;7.57;;;2.55;;
49183;SDS011;35021;49.214;12.270;2022-10-29T00:30:14;6.10;;;2.33;;
49183;SDS011;35021;49.214;12.270;2022-10-29T00:32:41;5.72;;;2.50;;
49183;SDS011;35021;49.214;12.270;2022-10-29T00:35:08;4.97;;;2.53;;
49183;SDS011;35021;49.214;12.270;2022-10-29T00:37:35;5.82;;;3.10;;
49183;SDS011;35021;49.214;12.270;2022-10-29T00:40:02;4.90;;;2.35;;
49183;SDS011;35021;49.214;12.270;2022-10-29T00:42:30;5.03;;;3.10;;
49183;SDS011;35021;49.214;12.270;2022-10-29T00:44:56;5.43;;;3.00;;
49183;SDS011;35021;49.214;12.270;2022-10-29T00:47:33;7.50;;;3.40;;
49183;SDS011;35021;49.214;12.270;2022-10-29T00:50:04;3.65;;;2.30;;
49183;SDS011;35021;49.214;12.270;2022-10-29T00:52:35;5.18;;;2.33;;
49183;SDS011;35021;49.214;12.270;2022-10-29T00:55:06;3.65;;;2.20;;
49183;SDS011;35021;49.214;12.270;2022-10-29T00:57:38;5.22;;;2.28;;
49183;SDS011;35021;49.214;12.270;2022-10-29T01:00:06;4.97;;;2.25;;
49183;SDS011;35021;49.214;12.270;2022-10-29T01:02:34;3.22;;;1.95;;
49183;SDS011;35021;49.214;12.270;2022-10-29T01:05:03;5.40;;;2.40;;
49183;SDS011;35021;49.214;12.270;2022-10-29T01:07:31;5.93;;;2.22;;
49183;SDS011;35021;49.214;12.270;2022-10-29T01:09:59;3.58;;;1.92;;
49183;SDS011;35021;49.214;12.270;2022-10-29T01:18:27;4.78;;;1.95;;
49183;SDS011;35021;49.214;12.270;2022-10-29T01:32:29;5.18;;;2.10;;
49183;SDS011;35021;49.214;12.270;2022-10-29T01:37:55;4.50;;;1.80;;
49183;SDS011;35021;49.214;12.270;2022-10-29T01:40:27;3.25;;;1.80;;
49183;SDS011;35021;49.214;12.270;2022-10-29T01:43:07;4.65;;;2.17;;
49183;SDS011;35021;49.214;12.270;2022-10-29T01:45:47;5.97;;;2.15;;
49183;SDS011;35021;49.214;12.270;2022-10-29T01:48:28;3.70;;;2.30;;
49183;SDS011;35021;49.214;12.270;2022-10-29T01:51:01;6.07;;;2.00;;
49183;SDS011;35021;49.214;12.270;2022-10-29T01:53:35;2.70;;;1.75;;
49183;SDS011;35021;49.214;12.270;2022-10-29T01:56:03;4.57;;;1.77;;
49183;SDS011;35021;49.214;12.270;2022-10-29T01:58:30;3.92;;;1.60;;
49183;SDS011;35021;49.214;12.270;2022-10-29T02:01:05;3.95;;;2.00;;
49183;SDS011;35021;49.214;12.270;2022-10-29T02:03:41;3.40;;;1.77;;
49183;SDS011;35021;49.214;12.270;2022-10-29T02:06:35;2.33;;;1.70;;
49183;SDS011;35021;49.214;12.270;2022-10-29T02:09:19;4.45;;;1.65;;
49183;SDS011;35021;49.214;12.270;2022-10-29T02:14:48;2.58;;;1.58;;
49183;SDS011;35021;49.214;12.270;2022-10-29T02:17:22;4.22;;;1.92;;
49183;SDS011;35021;49.214;12.270;2022-10-29T02:19:49;4.18;;;2.30;;
49183;SDS011;35021;49.214;12.270;2022-10-29T02:22:16;6.28;;;2.70;;
49183;SDS011;35021;49.214;12.270;2022-10-29T02:24:43;2.95;;;2.08;;
49183;SDS011;35021;49.214;12.270;2022-10-29T02:27:10;7.05;;;2.50;;
49183;SDS011;35021;49.214;12.270;2022-10-29T02:29:37;4.85;;;2.67;;
49183;SDS011;35021;49.214;12.270;2022-10-29T02:32:05;6.60;;;2.65;;
49183;SDS011;35021;49.214;12.270;2022-10-29T02:34:32;6.15;;;2.90;;
49183;SDS011;35021;49.214;12.270;2022-10-29T02:36:59;5.07;;;2.90;;
49183;SDS011;35021;49.214;12.270;2022-10-29T02:39:25;4.28;;;2.72;;
49183;SDS011;35021;49.214;12.270;2022-10-29T02:41:52;4.32;;;2.47;;
49183;SDS011;35021;49.214;12.270;2022-10-29T02:44:19;6.10;;;3.40;;
49183;SDS011;35021;49.214;12.270;2022-10-29T02:46:46;5.28;;;3.20;;
49183;SDS011;35021;49.214;12.270;2022-10-29T02:49:13;4.43;;;2.85;;
49183;SDS011;35021;49.214;12.270;2022-10-29T02:51:40;7.00;;;2.80;;
49183;SDS011;35021;49.214;12.270;2022-10-29T02:54:06;5.38;;;2.53;;
49183;SDS011;35021;49.214;12.270;2022-10-29T02:56:33;5.50;;;2.70;;
49183;SDS011;35021;49.214;12.270;2022-10-29T02:59:00;5.38;;;2.28;;
49183;SDS011;35021;49.214;12.270;2022-10-29T03:01:30;5.97;;;2.45;;
49183;SDS011;35021;49.214;12.270;2022-10-29T03:03:57;4.22;;;2.28;;
49183;SDS011;35021;49.214;12.270;2022-10-29T03:06:24;4.97;;;2.75;;
49183;SDS011;35021;49.214;12.270;2022-10-29T03:08:51;4.20;;;2.50;;
49183;SDS011;35021;49.214;12.270;2022-10-29T03:11:18;5.80;;;2.15;;
49183;SDS011;35021;49.214;12.270;2022-10-29T03:13:45;3.70;;;2.15;;
49183;SDS011;35021;49.214;12.270;2022-10-29T03:16:11;3.70;;;2.30;;
49183;SDS011;35021;49.214;12.270;2022-10-29T03:18:38;3.00;;;2.13;;
49183;SDS011;35021;49.214;12.270;2022-10-29T03:21:05;3.13;;;2.28;;
49183;SDS011;35021;49.214;12.270;2022-10-29T03:23:32;5.18;;;3.22;;
49183;SDS011;35021;49.214;12.270;2022-10-29T03:25:58;4.30;;;2.40;;
49183;SDS011;35021;49.214;12.270;2022-10-29T03:28:25;5.07;;;2.40;;
49183;SDS011;35021;49.214;12.270;2022-10-29T03:30:56;3.53;;;2.40;;
49183;SDS011;35021;49.214;12.270;2022-10-29T03:33:23;6.13;;;2.22;;
49183;SDS011;35021;49.214;12.270;2022-10-29T03:35:58;4.03;;;2.20;;
49183;SDS011;35021;49.214;12.270;2022-10-29T03:38:26;4.25;;;2.15;;
49183;SDS011;35021;49.214;12.270;2022-10-29T03:40:53;3.30;;;2.30;;
49183;SDS011;35021;49.214;12.270;2022-10-29T03:43:20;4.07;;;2.05;;
49183;SDS011;35021;49.214;12.270;2022-10-29T03:45:51;3.70;;;2.20;;
49183;SDS011;35021;49.214;12.270;2022-10-29T03:48:23;5.55;;;2.30;;
49183;SDS011;35021;49.214;12.270;2022-10-29T03:50:53;3.63;;;2.10;;
49183;SDS011;35021;49.214;12.270;2022-10-29T03:53:25;5.45;;;2.15;;
49183;SDS011;35021;49.214;12.270;2022-10-29T03:55:53;4.70;;;2.20;;
49183;SDS011;35021;49.214;12.270;2022-10-29T03:58:22;4.35;;;1.77;;
49183;SDS011;35021;49.214;12.270;2022-10-29T04:00:53;5.38;;;2.10;;
49183;SDS011;35021;49.214;12.270;2022-10-29T04:03:20;4.18;;;2.00;;
49183;SDS011;35021;49.214;12.270;2022-10-29T04:05:47;4.72;;;2.22;;
49183;SDS011;35021;49.214;12.270;2022-10-29T04:08:15;3.58;;;2.33;;
49183;SDS011;35021;49.214;12.270;2022-10-29T04:10:43;6.13;;;2.20;;
49183;SDS011;35021;49.214;12.270;2022-10-29T04:13:11;9.23;;;2.40;;
49183;SDS011;35021;49.214;12.270;2022-10-29T04:15:38;5.20;;;2.38;;
49183;SDS011;35021;49.214;12.270;2022-10-29T04:18:06;6.93;;;2.55;;
49183;SDS011;35021;49.214;12.270;2022-10-29T04:20:34;5.82;;;2.05;;
49183;SDS011;35021;49.214;12.270;2022-10-29T04:23:21;4.60;;;2.13;;
49183;SDS011;35021;49.214;12.270;2022-10-29T04:26:08;5.07;;;2.05;;
49183;SDS011;35021;49.214;12.270;2022-10-29T04:28:55;4.03;;;1.80;;
49183;SDS011;35021;49.214;12.270;2022-10-29T04:31:22;3.85;;;2.45;;
49183;SDS011;35021;49.214;12.270;2022-10-29T04:33:51;3.47;;;2.03;;
49183;SDS011;35021;49.214;12.270;2022-10-29T04:36:18;5.88;;;2.42;;
49183;SDS011;35021;49.214;12.270;2022-10-29T04:38:45;6.32;;;2.08;;
49183;SDS011;35021;49.214;12.270;2022-10-29T04:41:12;4.57;;;2.03;;
49183;SDS011;35021;49.214;12.270;2022-10-29T04:43:38;8.43;;;2.20;;
49183;SDS011;35021;49.214;12.270;2022-10-29T04:46:05;6.28;;;1.90;;
49183;SDS011;35021;49.214;12.270;2022-10-29T04:48:32;4.47;;;2.22;;
49183;SDS011;35021;49.214;12.270;2022-10-29T04:50:59;4.50;;;2.08;;
49183;SDS011;35021;49.214;12.270;2022-10-29T04:53:25;5.90;;;2.15;;
49183;SDS011;35021;49.214;12.270;2022-10-29T04:55:57;5.22;;;2.35;;
49183;SDS011;35021;49.214;12.270;2022-10-29T04:58:26;5.30;;;2.92;;
49183;SDS011;35021;49.214;12.270;2022-10-29T05:00:53;7.65;;;2.17;;
49183;SDS011;35021;49.214;12.270;2022-10-29T05:03:25;5.18;;;2.00;;
49183;SDS011;35021;49.214;12.270;2022-10-29T05:05:52;6.65;;;2.35;;
49183;SDS011;35021;49.214;12.270;2022-10-29T05:08:19;7.38;;;2.30;;
49183;SDS011;35021;49.214;12.270;2022-10-29T05:10:46;7.25;;;2.30;;
49183;SDS011;35021;49.214;12.270;2022-10-29T05:13:13;6.18;;;2.10;;
49183;SDS011;35021;49.214;12.270;2022-10-29T05:15:40;6.13;;;2.72;;
49183;SDS011;35021;49.214;12.270;2022-10-29T05:18:08;3.65;;;2.08;;
49183;SDS011;35021;49.214;12.270;2022-10-29T05:20:35;5.63;;;2.08;;
49183;SDS011;35021;49.214;12.270;2022-10-29T05:23:03;6.68;;;1.90;;
49183;SDS011;35021;49.214;12.270;2022-10-29T05:25:32;9.02;;;2.45;;
49183;SDS011;35021;49.214;12.270;2022-10-29T05:28:05;5.22;;;1.63;;
49183;SDS011;35021;49.214;12.270;2022-10-29T05:30:34;5.07;;;2.10;;
49183;SDS011;35021;49.214;12.270;2022-10-29T05:33:02;7.00;;;1.70;;
49183;SDS011;35021;49.214;12.270;2022-10-29T05:35:34;5.55;;;1.77;;
49183;SDS011;35021;49.214;12.270;2022-10-29T05:38:02;5.30;;;1.92;;
49183;SDS011;35021;49.214;12.270;2022-10-29T05:40:29;6.28;;;2.30;;
49183;SDS011;35021;49.214;12.270;2022-10-29T05:42:57;6.53;;;2.53;;
49183;SDS011;35021;49.214;12.270;2022-10-29T05:45:24;4.78;;;2.00;;
49183;SDS011;35021;49.214;12.270;2022-10-29T05:47:58;8.07;;;3.10;;
49183;SDS011;35021;49.214;12.270;2022-10-29T05:50:27;4.70;;;2.10;;
49183;SDS011;35021;49.214;12.270;2022-10-29T05:55:26;4.75;;;1.95;;
49183;SDS011;35021;49.214;12.270;2022-10-29T05:57:55;7.30;;;1.98;;
49183;SDS011;35021;49.214;12.270;2022-10-29T06:00:24;4.90;;;2.33;;
49183;SDS011;35021;49.214;12.270;2022-10-29T06:02:55;3.78;;;1.90;;
49183;SDS011;35021;49.214;12.270;2022-10-29T06:05:23;5.43;;;2.13;;
49183;SDS011;35021;49.214;12.270;2022-10-29T06:07:54;4.60;;;1.95;;
49183;SDS011;35021;49.214;12.270;2022-10-29T06:10:22;3.00;;;1.77;;
49183;SDS011;35021;49.214;12.270;2022-10-29T06:12:50;5.78;;;2.40;;
49183;SDS011;35021;49.214;12.270;2022-10-29T06:15:17;3.40;;;2.25;;
49183;SDS011;35021;49.214;12.270;2022-10-29T06:17:45;4.18;;;2.08;;
49183;SDS011;35021;49.214;12.270;2022-10-29T06:20:13;3.53;;;2.10;;
49183;SDS011;35021;49.214;12.270;2022-10-29T06:22:41;5.88;;;2.60;;
49183;SDS011;35021;49.214;12.270;2022-10-29T06:25:08;3.20;;;1.90;;
49183;SDS011;35021;49.214;12.270;2022-10-29T06:27:35;5.18;;;2.88;;
49183;SDS011;35021;49.214;12.270;2022-10-29T06:30:03;5.05;;;2.97;;
49183;SDS011;35021;49.214;12.270;2022-10-29T06:32:31;6.55;;;2.55;;
49183;SDS011;35021;49.214;12.270;2022-10-29T06:34:57;4.50;;;2.60;;
49183;SDS011;35021;49.214;12.270;2022-10-29T06:37:24;4.80;;;3.20;;
49183;SDS011;35021;49.214;12.270;2022-10-29T06:39:51;3.58;;;2.80;;
49183;SDS011;35021;49.214;12.270;2022-10-29T06:42:18;4.47;;;2.85;;
49183;SDS011;35021;49.214;12.270;2022-10-29T06:44:45;4.43;;;2.53;;
49183;SDS011;35021;49.214;12.270;2022-10-29T06:47:11;6.53;;;3.25;;
49183;SDS011;35021;49.214;12.270;2022-10-29T06:49:38;4.88;;;2.55;;
49183;SDS011;35021;49.214;12.270;2022-10-29T06:52:05;4.93;;;2.78;;
49183;SDS011;35021;49.214;12.270;2022-10-29T06:54:32;3.20;;;2.40;;
49183;SDS011;35021;49.214;12.270;2022-10-29T06:56:58;5.38;;;2.90;;
49183;SDS011;35021;49.214;12.270;2022-10-29T06:59:25;7.03;;;2.67;;
49183;SDS011;35021;49.214;12.270;2022-10-29T07:01:52;3.30;;;2.92;;
49183;SDS011;35021;49.214;12.270;2022-10-29T07:04:19;6.47;;;3.00;;
49183;SDS011;35021;49.214;12.270;2022-10-29T07:06:46;4.25;;;3.00;;
49183;SDS011;35021;49.214;12.270;2022-10-29T07:09:13;6.40;;;3.30;;
49183;SDS011;35021;49.214;12.270;2022-10-29T07:11:40;5.75;;;3.03;;
49183;SDS011;35021;49.214;12.270;2022-10-29T07:14:06;5.55;;;3.20;;
49183;SDS011;35021;49.214;12.270;2022-10-29T07:16:35;4.88;;;3.17;;
49183;SDS011;35021;49.214;12.270;2022-10-29T07:19:02;6.93;;;3.63;;
49183;SDS011;35021;49.214;12.270;2022-10-29T07:21:30;6.15;;;4.57;;
49183;SDS011;35021;49.214;12.270;2022-10-29T07:23:56;9.57;;;5.32;;
49183;SDS011;35021;49.214;12.270;2022-10-29T07:26:24;7.85;;;4.93;;
49183;SDS011;35021;49.214;12.270;2022-10-29T07:28:53;8.10;;;5.03;;
49183;SDS011;35021;49.214;12.270;2022-10-29T07:31:22;6.10;;;4.05;;
49183;SDS011;35021;49.214;12.270;2022-10-29T07:33:49;9.10;;;4.20;;
49183;SDS011;35021;49.214;12.270;2022-10-29T07:36:16;7.57;;;3.58;;
49183;SDS011;35021;49.214;12.270;2022-10-29T07:38:43;7.45;;;3.80;;
49183;SDS011;35021;49.214;12.270;2022-10-29T07:41:10;5.07;;;3.40;;
49183;SDS011;35021;49.214;12.270;2022-10-29T07:43:36;6.95;;;3.42;;
49183;SDS011;35021;49.214;12.270;2022-10-29T07:46:03;4.40;;;2.60;;
49183;SDS011;35021;49.214;12.270;2022-10-29T07:48:30;7.20;;;2.85;;
49183;SDS011;35021;49.214;12.270;2022-10-29T07:50:57;7.22;;;3.05;;
49183;SDS011;35021;49.214;12.270;2022-10-29T07:53:25;9.02;;;3.28;;
49183;SDS011;35021;49.214;12.270;2022-10-29T07:55:53;8.32;;;3.63;;
49183;SDS011;35021;49.214;12.270;2022-10-29T07:58:20;6.05;;;2.95;;
49183;SDS011;35021;49.214;12.270;2022-10-29T08:00:49;3.58;;;2.67;;
49183;SDS011;35021;49.214;12.270;2022-10-29T08:03:16;5.40;;;3.25;;
49183;SDS011;35021;49.214;12.270;2022-10-29T08:05:43;8.15;;;3.80;;
49183;SDS011;35021;49.214;12.270;2022-10-29T08:08:17;4.10;;;3.15;;
49183;SDS011;35021;49.214;12.270;2022-10-29T08:10:44;7.25;;;2.92;;
49183;SDS011;35021;49.214;12.270;2022-10-29T08:13:11;6.75;;;3.55;;
49183;SDS011;35021;49.214;12.270;2022-10-29T08:15:38;7.05;;;3.60;;
49183;SDS011;35021;49.214;12.270;2022-10-29T08:18:08;7.75;;;3.78;;
49183;SDS011;35021;49.214;12.270;2022-10-29T08:20:39;7.55;;;3.72;;
49183;SDS011;35021;49.214;12.270;2022-10-29T08:23:07;7.85;;;3.65;;
49183;SDS011;35021;49.214;12.270;2022-10-29T08:25:34;5.20;;;3.13;;
49183;SDS011;35021;49.214;12.270;2022-10-29T08:28:06;9.10;;;4.00;;
49183;SDS011;35021;49.214;12.270;2022-10-29T08:30:36;7.68;;;3.60;;
49183;SDS011;35021;49.214;12.270;2022-10-29T08:33:04;5.63;;;3.80;;
49183;SDS011;35021;49.214;12.270;2022-10-29T08:35:31;6.45;;;3.90;;
49183;SDS011;35021;49.214;12.270;2022-10-29T08:37:59;10.27;;;4.45;;
49183;SDS011;35021;49.214;12.270;2022-10-29T08:40:27;7.15;;;4.00;;
49183;SDS011;35021;49.214;12.270;2022-10-29T08:45:44;5.75;;;3.53;;
49183;SDS011;35021;49.214;12.270;2022-10-29T08:51:14;4.80;;;3.42;;
49183;SDS011;35021;49.214;12.270;2022-10-29T08:53:45;11.20;;;4.00;;
49183;SDS011;35021;49.214;12.270;2022-10-29T08:56:35;4.90;;;3.22;;
49183;SDS011;35021;49.214;12.270;2022-10-29T08:59:05;6.05;;;3.28;;
49183;SDS011;35021;49.214;12.270;2022-10-29T09:01:41;7.55;;;3.00;;
49183;SDS011;35021;49.214;12.270;2022-10-29T09:04:42;5.78;;;3.60;;
49183;SDS011;35021;49.214;12.270;2022-10-29T09:10:10;5.90;;;3.33;;
49183;SDS011;35021;49.214;12.270;2022-10-29T09:18:38;5.20;;;2.92;;
49183;SDS011;35021;49.214;12.270;2022-10-29T09:23:50;5.25;;;2.75;;
49183;SDS011;35021;49.214;12.270;2022-10-29T09:29:22;5.28;;;3.15;;
49183;SDS011;35021;49.214;12.270;2022-10-29T09:34:48;5.55;;;3.35;;
49183;SDS011;35021;49.214;12.270;2022-10-29T09:37:22;8.07;;;3.63;;
49183;SDS011;35021;49.214;12.270;2022-10-29T09:40:05;5.75;;;3.28;;
49183;SDS011;35021;49.214;12.270;2022-10-29T09:42:40;6.43;;;3.90;;
49183;SDS011;35021;49.214;12.270;2022-10-29T09:45:15;5.28;;;3.70;;
49183;SDS011;35021;49.214;12.270;2022-10-29T09:53:25;10.15;;;4.38;;
49183;SDS011;35021;49.214;12.270;2022-10-29T09:55:52;5.93;;;3.80;;
49183;SDS011;35021;49.214;12.270;2022-10-29T09:58:24;8.15;;;3.70;;
49183;SDS011;35021;49.214;12.270;2022-10-29T10:00:52;7.57;;;3.95;;
49183;SDS011;35021;49.214;12.270;2022-10-29T10:08:28;7.38;;;3.63;;
49183;SDS011;35021;49.214;12.270;2022-10-29T10:13:32;7.35;;;3.90;;
49183;SDS011;35021;49.214;12.270;2022-10-29T10:16:15;4.88;;;3.70;;
49183;SDS011;35021;49.214;12.270;2022-10-29T10:18:50;5.60;;;3.10;;
49183;SDS011;35021;49.214;12.270;2022-10-29T10:21:24;5.43;;;3.25;;
49183;SDS011;35021;49.214;12.270;2022-10-29T10:23:52;5.75;;;3.50;;
49183;SDS011;35021;49.214;12.270;2022-10-29T10:27:02;6.30;;;3.25;;
49183;SDS011;35021;49.214;12.270;2022-10-29T10:31:45;6.45;;;3.47;;
49183;SDS011;35021;49.214;12.270;2022-10-29T10:34:20;4.63;;;3.05;;
49183;SDS011;35021;49.214;12.270;2022-10-29T10:36:54;4.32;;;3.10;;
49183;SDS011;35021;49.214;12.270;2022-10-29T10:41:59;4.40;;;2.97;;
49183;SDS011;35021;49.214;12.270;2022-10-29T10:44:29;5.65;;;2.92;;
49183;SDS011;35021;49.214;12.270;2022-10-29T10:46:57;4.47;;;2.97;;
49183;SDS011;35021;49.214;12.270;2022-10-29T10:49:36;4.60;;;2.92;;
49183;SDS011;35021;49.214;12.270;2022-10-29T10:52:05;4.82;;;2.70;;
49183;SDS011;35021;49.214;12.270;2022-10-29T10:54:44;5.47;;;2.80;;
49183;SDS011;35021;49.214;12.270;2022-10-29T10:57:20;5.77;;;2.70;;
49183;SDS011;35021;49.214;12.270;2022-10-29T10:59:55;6.20;;;3.28;;
49183;SDS011;35021;49.214;12.270;2022-10-29T11:08:45;5.10;;;2.60;;
49183;SDS011;35021;49.214;12.270;2022-10-29T11:11:26;5.68;;;2.65;;
49183;SDS011;35021;49.214;12.270;2022-10-29T11:14:01;4.78;;;2.30;;
49183;SDS011;35021;49.214;12.270;2022-10-29T11:16:38;5.70;;;2.60;;
49183;SDS011;35021;49.214;12.270;2022-10-29T11:30:22;3.65;;;2.40;;
49183;SDS011;35021;49.214;12.270;2022-10-29T11:35:55;4.07;;;2.30;;
49183;SDS011;35021;49.214;12.270;2022-10-29T11:38:42;4.28;;;2.42;;
49183;SDS011;35021;49.214;12.270;2022-10-29T11:44:08;4.25;;;2.17;;
49183;SDS011;35021;49.214;12.270;2022-10-29T11:46:53;3.38;;;2.47;;
49183;SDS011;35021;49.214;12.270;2022-10-29T11:52:07;5.88;;;2.30;;
49183;SDS011;35021;49.214;12.270;2022-10-29T11:54:49;7.55;;;2.83;;
49183;SDS011;35021;49.214;12.270;2022-10-29T11:57:48;3.38;;;2.10;;
49183;SDS011;35021;49.214;12.270;2022-10-29T12:00:40;5.07;;;2.20;;
49183;SDS011;35021;49.214;12.270;2022-10-29T12:06:18;3.83;;;2.15;;
49183;SDS011;35021;49.214;12.270;2022-10-29T12:12:20;5.45;;;2.42;;
49183;SDS011;35021;49.214;12.270;2022-10-29T12:20:41;7.95;;;2.58;;
49183;SDS011;35021;49.214;12.270;2022-10-29T12:23:17;5.30;;;2.20;;
49183;SDS011;35021;49.214;12.270;2022-10-29T12:25:54;5.22;;;2.25;;
49183;SDS011;35021;49.214;12.270;2022-10-29T12:34:04;3.30;;;2.25;;
49183;SDS011;35021;49.214;12.270;2022-10-29T12:36:42;4.38;;;2.13;;
49183;SDS011;35021;49.214;12.270;2022-10-29T12:39:30;5.05;;;2.22;;
49183;SDS011;35021;49.214;12.270;2022-10-29T12:44:37;4.30;;;2.22;;
49183;SDS011;35021;49.214;12.270;2022-10-29T12:47:29;5.15;;;2.22;;
49183;SDS011;35021;49.214;12.270;2022-10-29T12:50:17;5.85;;;2.88;;
49183;SDS011;35021;49.214;12.270;2022-10-29T12:55:55;6.35;;;2.50;;
49183;SDS011;35021;49.214;12.270;2022-10-29T13:04:30;5.93;;;2.28;;
49183;SDS011;35021;49.214;12.270;2022-10-29T13:09:51;4.60;;;2.30;;
49183;SDS011;35021;49.214;12.270;2022-10-29T13:13:43;3.65;;;1.95;;
49183;SDS011;35021;49.214;12.270;2022-10-29T13:16:58;6.63;;;2.67;;
49183;SDS011;35021;49.214;12.270;2022-10-29T13:19:45;3.08;;;1.75;;
49183;SDS011;35021;49.214;12.270;2022-10-29T13:22:49;4.85;;;2.22;;
49183;SDS011;35021;49.214;12.270;2022-10-29T13:30:34;4.13;;;2.00;;
49183;SDS011;35021;49.214;12.270;2022-10-29T13:38:42;5.72;;;2.20;;
49183;SDS011;35021;49.214;12.270;2022-10-29T13:44:18;4.82;;;2.55;;
49183;SDS011;35021;49.214;12.270;2022-10-29T13:49:33;4.97;;;2.53;;
49183;SDS011;35021;49.214;12.270;2022-10-29T13:54:39;3.83;;;2.03;;
49183;SDS011;35021;49.214;12.270;2022-10-29T13:59:55;4.15;;;2.28;;
49183;SDS011;35021;49.214;12.270;2022-10-29T14:07:42;5.07;;;2.15;;
49183;SDS011;35021;49.214;12.270;2022-10-29T14:10:25;5.63;;;1.92;;
49183;SDS011;35021;49.214;12.270;2022-10-29T14:13:00;4.32;;;2.40;;
49183;SDS011;35021;49.214;12.270;2022-10-29T14:16:06;4.03;;;2.22;;
49183;SDS011;35021;49.214;12.270;2022-10-29T14:18:36;6.30;;;2.17;;
49183;SDS011;35021;49.214;12.270;2022-10-29T14:21:12;4.70;;;2.30;;
49183;SDS011;35021;49.214;12.270;2022-10-29T14:23:59;5.47;;;2.35;;
49183;SDS011;35021;49.214;12.270;2022-10-29T14:26:31;3.53;;;2.20;;
49183;SDS011;35021;49.214;12.270;2022-10-29T14:29:22;5.13;;;2.40;;
49183;SDS011;35021;49.214;12.270;2022-10-29T14:32:06;3.03;;;1.80;;
49183;SDS011;35021;49.214;12.270;2022-10-29T14:34:38;6.00;;;2.90;;
49183;SDS011;35021;49.214;12.270;2022-10-29T14:39:41;4.47;;;2.08;;
49183;SDS011;35021;49.214;12.270;2022-10-29T14:47:49;7.32;;;2.65;;
49183;SDS011;35021;49.214;12.270;2022-10-29T14:50:19;3.83;;;2.00;;
49183;SDS011;35021;49.214;12.270;2022-10-29T14:52:50;6.72;;;2.20;;
49183;SDS011;35021;49.214;12.270;2022-10-29T14:55:22;5.40;;;2.35;;
49183;SDS011;35021;49.214;12.270;2022-10-29T14:58:01;4.93;;;2.38;;
49183;SDS011;35021;49.214;12.270;2022-10-29T15:01:00;3.80;;;2.42;;
49183;SDS011;35021;49.214;12.270;2022-10-29T15:03:32;4.30;;;1.80;;
49183;SDS011;35021;49.214;12.270;2022-10-29T15:06:16;4.50;;;2.35;;
49183;SDS011;35021;49.214;12.270;2022-10-29T15:08:45;4.35;;;2.08;;
49183;SDS011;35021;49.214;12.270;2022-10-29T15:14:01;4.88;;;2.33;;
49183;SDS011;35021;49.214;12.270;2022-10-29T15:16:31;3.47;;;1.85;;
49183;SDS011;35021;49.214;12.270;2022-10-29T15:19:09;4.57;;;2.20;;
49183;SDS011;35021;49.214;12.270;2022-10-29T15:21:40;4.00;;;2.25;;
49183;SDS011;35021;49.214;12.270;2022-10-29T15:24:07;4.00;;;2.20;;
49183;SDS011;35021;49.214;12.270;2022-10-29T15:26:47;4.63;;;2.05;;
49183;SDS011;35021;49.214;12.270;2022-10-29T15:29:17;4.80;;;2.00;;
49183;SDS011;35021;49.214;12.270;2022-10-29T15:31:58;3.92;;;2.35;;
49183;SDS011;35021;49.214;12.270;2022-10-29T15:34:33;5.13;;;2.40;;
49183;SDS011;35021;49.214;12.270;2022-10-29T15:42:46;5.55;;;2.17;;
49183;SDS011;35021;49.214;12.270;2022-10-29T15:45:18;5.93;;;2.50;;
49183;SDS011;35021;49.214;12.270;2022-10-29T15:47:54;4.20;;;1.77;;
49183;SDS011;35021;49.214;12.270;2022-10-29T15:50:36;8.50;;;2.53;;
49183;SDS011;35021;49.214;12.270;2022-10-29T15:53:04;5.05;;;2.15;;
49183;SDS011;35021;49.214;12.270;2022-10-29T15:55:37;3.97;;;2.30;;
49183;SDS011;35021;49.214;12.270;2022-10-29T15:58:05;6.80;;;3.00;;
49183;SDS011;35021;49.214;12.270;2022-10-29T16:00:37;5.13;;;2.40;;
49183;SDS011;35021;49.214;12.270;2022-10-29T16:05:42;4.40;;;2.40;;
49183;SDS011;35021;49.214;12.270;2022-10-29T16:08:26;4.63;;;2.65;;
49183;SDS011;35021;49.214;12.270;2022-10-29T16:10:57;6.13;;;2.50;;
49183;SDS011;35021;49.214;12.270;2022-10-29T16:13:26;4.75;;;2.80;;
49183;SDS011;35021;49.214;12.270;2022-10-29T16:15:55;4.30;;;2.58;;
49183;SDS011;35021;49.214;12.270;2022-10-29T16:18:22;4.35;;;2.40;;
49183;SDS011;35021;49.214;12.270;2022-10-29T16:20:49;5.93;;;2.60;;
49183;SDS011;35021;49.214;12.270;2022-10-29T16:23:20;5.22;;;2.78;;
49183;SDS011;35021;49.214;12.270;2022-10-29T16:25:46;5.47;;;3.22;;
49183;SDS011;35021;49.214;12.270;2022-10-29T16:28:13;7.38;;;3.45;;
49183;SDS011;35021;49.214;12.270;2022-10-29T16:30:40;7.10;;;3.42;;
49183;SDS011;35021;49.214;12.270;2022-10-29T16:33:09;5.97;;;3.03;;
49183;SDS011;35021;49.214;12.270;2022-10-29T16:35:36;7.57;;;4.05;;
49183;SDS011;35021;49.214;12.270;2022-10-29T16:38:03;7.22;;;3.78;;
49183;SDS011;35021;49.214;12.270;2022-10-29T16:40:30;6.97;;;3.53;;
49183;SDS011;35021;49.214;12.270;2022-10-29T16:42:57;6.28;;;3.22;;
49183;SDS011;35021;49.214;12.270;2022-10-29T16:45:26;6.07;;;3.65;;
49183;SDS011;35021;49.214;12.270;2022-10-29T16:47:55;10.90;;;5.03;;
49183;SDS011;35021;49.214;12.270;2022-10-29T16:50:24;8.85;;;5.10;;
49183;SDS011;35021;49.214;12.270;2022-10-29T16:52:56;10.55;;;5.93;;
49183;SDS011;35021;49.214;12.270;2022-10-29T16:55:24;12.85;;;6.03;;
49183;SDS011;35021;49.214;12.270;2022-10-29T16:57:52;10.93;;;6.22;;
49183;SDS011;35021;49.214;12.270;2022-10-29T17:00:19;11.27;;;5.60;;
49183;SDS011;35021;49.214;12.270;2022-10-29T17:02:46;9.60;;;5.95;;
49183;SDS011;35021;49.214;12.270;2022-10-29T17:05:15;9.65;;;5.75;;
49183;SDS011;35021;49.214;12.270;2022-10-29T17:07:41;9.32;;;5.90;;
49183;SDS011;35021;49.214;12.270;2022-10-29T17:10:08;10.38;;;5.45;;
49183;SDS011;35021;49.214;12.270;2022-10-29T17:12:35;9.32;;;5.18;;
49183;SDS011;35021;49.214;12.270;2022-10-29T17:15:03;10.73;;;5.47;;
49183;SDS011;35021;49.214;12.270;2022-10-29T17:17:31;8.35;;;5.30;;
49183;SDS011;35021;49.214;12.270;2022-10-29T17:19:58;6.93;;;4.93;;
49183;SDS011;35021;49.214;12.270;2022-10-29T17:22:24;9.00;;;5.13;;
49183;SDS011;35021;49.214;12.270;2022-10-29T17:24:51;9.80;;;5.05;;
49183;SDS011;35021;49.214;12.270;2022-10-29T17:27:18;7.88;;;5.05;;
49183;SDS011;35021;49.214;12.270;2022-10-29T17:29:45;11.63;;;5.50;;
49183;SDS011;35021;49.214;12.270;2022-10-29T17:32:12;9.80;;;5.32;;
49183;SDS011;35021;49.214;12.270;2022-10-29T17:34:39;10.52;;;4.80;;
49183;SDS011;35021;49.214;12.270;2022-10-29T17:37:07;10.07;;;5.22;;
49183;SDS011;35021;49.214;12.270;2022-10-29T17:39:34;8.00;;;4.63;;
49183;SDS011;35021;49.214;12.270;2022-10-29T17:42:01;10.55;;;5.13;;
49183;SDS011;35021;49.214;12.270;2022-10-29T17:44:28;8.80;;;3.92;;
49183;SDS011;35021;49.214;12.270;2022-10-29T17:46:56;12.27;;;4.63;;
49183;SDS011;35021;49.214;12.270;2022-10-29T17:49:23;15.00;;;4.40;;